Time;durP1;ratioP1;P1;durP2;ratioP2;P2;SDS_P1;SDS_P2;PMS_P1;PMS_P2;Temp;Humidity;BMP_temperature;BMP_pressure;BME280_temperature;BME280_humidity;BME280_pressure;Samples;Min_cycle;Max_cycle;Signal;HPM_P1;HPM_P2
2023/04/05 00:00:58;;;;;;;9.98;5.90;;;11.90;73.60;;;;;;4938639;29;20036;-81
2023/04/05 00:03:24;;;;;;;11.15;5.90;;;11.90;73.60;;;;;;4921778;29;20059;-80
2023/04/05 00:05:50;;;;;;;12.13;6.80;;;11.90;73.60;;;;;;4921557;29;20052;-81
2023/04/05 00:08:25;;;;;;;10.23;5.68;;;11.80;73.50;;;;;;4922468;29;20028;-81
2023/04/05 00:10:51;;;;;;;10.43;5.90;;;11.90;73.50;;;;;;4921805;29;20047;-81
2023/04/05 00:13:17;;;;;;;10.90;5.60;;;11.90;73.60;;;;;;4921741;29;20070;-81
2023/04/05 00:15:42;;;;;;;10.68;6.10;;;11.80;73.40;;;;;;4921710;29;20114;-80
2023/04/05 00:18:18;;;;;;;10.18;6.03;;;11.80;73.50;;;;;;4921570;29;20040;-81
2023/04/05 00:20:43;;;;;;;10.77;6.13;;;11.70;73.40;;;;;;4938442;29;20488;-81
2023/04/05 00:23:09;;;;;;;9.73;5.22;;;11.80;73.40;;;;;;4937313;29;20028;-81
2023/04/05 00:25:35;;;;;;;10.07;6.03;;;11.80;73.40;;;;;;4921411;29;20392;-80
2023/04/05 00:28:00;;;;;;;10.27;5.78;;;11.80;73.40;;;;;;4920694;29;20102;-80
2023/04/05 00:30:28;;;;;;;9.88;5.90;;;11.80;73.40;;;;;;4920733;29;20115;-80
2023/04/05 00:32:53;;;;;;;11.55;6.63;;;11.80;73.40;;;;;;4936677;29;20027;-81
2023/04/05 00:35:19;;;;;;;11.20;5.95;;;11.80;73.40;;;;;;4920450;29;20023;-80
2023/04/05 00:37:44;;;;;;;10.13;5.63;;;11.80;73.30;;;;;;4937445;29;20036;-80
2023/04/05 00:40:10;;;;;;;8.85;5.68;;;11.80;73.30;;;;;;4937296;29;20034;-78
2023/04/05 00:42:36;;;;;;;10.90;5.82;;;11.80;73.30;;;;;;4920621;29;20027;-80
2023/04/05 00:45:01;;;;;;;10.18;5.50;;;11.80;73.30;;;;;;4921026;29;20513;-80
2023/04/05 00:47:27;;;;;;;10.52;6.28;;;11.70;73.10;;;;;;4936109;29;20030;-80
2023/04/05 00:49:53;;;;;;;9.77;5.80;;;11.80;73.20;;;;;;4937352;29;20042;-80
2023/04/05 00:52:18;;;;;;;9.68;5.45;;;11.80;73.20;;;;;;4936115;29;20087;-81
2023/04/05 00:54:44;;;;;;;9.57;5.78;;;11.80;73.30;;;;;;4937312;29;20027;-80
2023/04/05 00:57:10;;;;;;;9.30;5.68;;;11.80;73.20;;;;;;4937453;29;20027;-80
2023/04/05 00:59:35;;;;;;;10.20;5.60;;;11.80;73.20;;;;;;4920498;29;20084;-81
2023/04/05 01:02:18;;;;;;;9.68;5.60;;;11.80;73.20;;;;;;4936531;29;20481;-81
2023/04/05 01:04:48;;;;;;;10.02;5.53;;;11.80;73.20;;;;;;4920030;29;20497;-81
2023/04/05 01:07:30;;;;;;;9.90;5.72;;;11.80;73.20;;;;;;4920393;29;20035;-80
2023/04/05 01:09:58;;;;;;;9.35;5.25;;;11.80;73.20;;;;;;4937031;29;20087;-80
2023/04/05 01:12:32;;;;;;;8.80;5.53;;;11.80;73.20;;;;;;4919693;29;20028;-80
2023/04/05 01:14:59;;;;;;;9.63;5.38;;;11.70;73.20;;;;;;4919692;29;20489;-80
2023/04/05 01:17:28;;;;;;;9.27;5.45;;;11.80;73.80;;;;;;4920184;29;20083;-81
2023/04/05 01:19:59;;;;;;;8.63;5.05;;;11.80;73.20;;;;;;4921741;29;20405;-82
2023/04/05 01:22:46;;;;;;;8.90;4.95;;;11.80;73.20;;;;;;4922954;29;20060;-81
2023/04/05 01:25:30;;;;;;;9.50;5.78;;;11.80;73.20;;;;;;4922680;29;20020;-81
2023/04/05 01:28:17;;;;;;;8.80;5.13;;;11.80;73.10;;;;;;4939440;29;20099;-81
2023/04/05 01:30:50;;;;;;;8.75;4.90;;;11.80;73.20;;;;;;4939151;29;20032;-81
2023/04/05 01:33:34;;;;;;;9.20;5.22;;;11.80;73.10;;;;;;4922415;29;20055;-81
2023/04/05 01:36:36;;;;;;;9.20;5.47;;;11.70;73.10;;;;;;4938772;29;20421;-81
2023/04/05 01:39:04;;;;;;;9.45;5.20;;;11.80;73.30;;;;;;4921643;29;20038;-81
2023/04/05 01:41:30;;;;;;;8.80;5.18;;;11.80;73.10;;;;;;4937157;29;20503;-80
2023/04/05 01:43:55;;;;;;;8.45;4.75;;;11.80;73.10;;;;;;4921255;29;20031;-81
2023/04/05 01:46:21;;;;;;;9.25;5.35;;;11.80;73.20;;;;;;4937181;29;20115;-81
2023/04/05 01:48:46;;;;;;;10.02;5.32;;;11.80;73.10;;;;;;4921208;29;20023;-81
2023/04/05 01:51:12;;;;;;;8.95;5.25;;;11.80;73.10;;;;;;4920410;29;20386;-81
2023/04/05 01:53:37;;;;;;;10.20;6.10;;;11.80;73.00;;;;;;4919900;29;20087;-80
2023/04/05 01:56:03;;;;;;;10.13;5.95;;;11.70;73.10;;;;;;4920976;29;20450;-81
2023/04/05 01:58:28;;;;;;;10.43;6.25;;;11.70;73.20;;;;;;4937894;29;20074;-82
2023/04/05 02:00:54;;;;;;;9.75;5.35;;;11.70;73.10;;;;;;4920285;29;20473;-81
2023/04/05 02:03:21;;;;;;;9.18;5.35;;;11.80;73.00;;;;;;4920333;29;20027;-80
2023/04/05 02:05:46;;;;;;;8.95;5.30;;;11.70;73.00;;;;;;4937814;29;20023;-80
2023/04/05 02:08:13;;;;;;;9.80;5.55;;;11.70;73.00;;;;;;4936605;29;20024;-80
2023/04/05 02:10:39;;;;;;;10.00;5.60;;;11.80;73.10;;;;;;4917368;29;20019;-82
2023/04/05 02:13:05;;;;;;;10.15;5.82;;;11.70;73.10;;;;;;4921636;29;20023;-82
2023/04/05 02:15:32;;;;;;;9.60;5.35;;;11.70;73.00;;;;;;4921867;29;20034;-81
2023/04/05 02:18:00;;;;;;;9.02;5.47;;;11.70;73.10;;;;;;4921623;29;20399;-81
2023/04/05 02:20:26;;;;;;;9.25;5.50;;;11.70;73.00;;;;;;4921038;29;20027;-81
2023/04/05 02:22:52;;;;;;;10.45;5.50;;;11.70;73.00;;;;;;4921473;29;20067;-81
2023/04/05 02:25:18;;;;;;;9.50;5.60;;;11.70;72.90;;;;;;4921339;29;20400;-80
2023/04/05 02:27:44;;;;;;;8.88;5.03;;;11.70;73.00;;;;;;4921666;29;20032;-80
2023/04/05 02:30:12;;;;;;;9.52;5.25;;;11.70;73.00;;;;;;4920862;29;20036;-79
2023/04/05 02:32:38;;;;;;;9.68;5.55;;;11.70;73.00;;;;;;4938133;29;20031;-80
2023/04/05 02:35:04;;;;;;;9.43;5.57;;;11.70;73.10;;;;;;4920807;29;20031;-81
2023/04/05 02:37:29;;;;;;;8.98;5.35;;;11.70;73.10;;;;;;4920561;29;20038;-81
2023/04/05 02:39:55;;;;;;;8.73;5.15;;;11.70;73.00;;;;;;4920624;29;20091;-81
2023/04/05 02:42:20;;;;;;;8.25;5.10;;;11.70;73.00;;;;;;4936198;29;20463;-81
2023/04/05 02:44:46;;;;;;;9.73;5.22;;;11.70;73.00;;;;;;4919022;29;20023;-80
2023/04/05 02:47:11;;;;;;;8.10;4.88;;;11.70;73.10;;;;;;4920428;29;20115;-81
2023/04/05 02:49:37;;;;;;;9.00;5.10;;;11.70;73.50;;;;;;4919771;29;20063;-80
2023/04/05 02:52:02;;;;;;;8.02;5.22;;;11.70;73.00;;;;;;4935682;29;20039;-81
2023/04/05 02:54:28;;;;;;;8.57;5.10;;;11.70;73.00;;;;;;4919796;29;20551;-79
2023/04/05 02:56:56;;;;;;;9.43;5.30;;;11.70;72.90;;;;;;4919769;29;20581;-80
2023/04/05 02:59:22;;;;;;;7.78;4.82;;;11.70;73.00;;;;;;4919909;29;20070;-80
2023/04/05 03:01:47;;;;;;;8.45;4.97;;;11.70;73.00;;;;;;4919290;29;20520;-80
2023/04/05 03:04:13;;;;;;;8.88;5.00;;;11.70;73.10;;;;;;4935015;29;20090;-80
2023/04/05 03:06:38;;;;;;;8.35;5.05;;;11.70;73.10;;;;;;4919130;29;20409;-82
2023/04/05 03:09:04;;;;;;;9.73;5.57;;;11.70;73.00;;;;;;4936649;29;20024;-81
2023/04/05 03:11:30;;;;;;;8.13;5.13;;;11.70;72.90;;;;;;4935263;29;20378;-80
2023/04/05 03:13:56;;;;;;;8.70;5.05;;;11.70;73.00;;;;;;4919323;29;20024;-80
2023/04/05 03:16:21;;;;;;;8.90;5.07;;;11.70;73.00;;;;;;4919436;29;20028;-81
2023/04/05 03:18:48;;;;;;;9.35;5.65;;;11.70;73.00;;;;;;4919517;29;20031;-80
2023/04/05 03:21:16;;;;;;;8.32;4.95;;;11.70;73.00;;;;;;4933250;29;20038;-81
2023/04/05 03:23:42;;;;;;;8.48;5.60;;;11.70;73.00;;;;;;4914638;29;20409;-84
2023/04/05 03:26:09;;;;;;;8.38;5.20;;;11.70;72.90;;;;;;4936025;29;20027;-80
2023/04/05 03:28:34;;;;;;;8.98;5.07;;;11.70;73.00;;;;;;4915560;29;20527;-80
2023/04/05 03:31:00;;;;;;;9.20;4.90;;;11.70;72.90;;;;;;4935630;29;20019;-81
2023/04/05 03:33:25;;;;;;;8.05;5.05;;;11.70;73.00;;;;;;4954308;29;20134;-79
2023/04/05 03:35:51;;;;;;;9.32;5.28;;;11.70;72.90;;;;;;4921975;29;20079;-79
2023/04/05 03:38:16;;;;;;;8.70;4.85;;;11.60;72.90;;;;;;4919951;29;20095;-83
2023/04/05 03:40:42;;;;;;;8.60;4.85;;;11.60;72.90;;;;;;4920006;29;20032;-80
2023/04/05 03:43:08;;;;;;;8.38;4.65;;;11.60;72.80;;;;;;4919925;29;20485;-81
2023/04/05 03:45:33;;;;;;;9.30;5.57;;;11.60;72.80;;;;;;4935832;29;20031;-79
2023/04/05 03:47:59;;;;;;;8.70;4.97;;;11.70;72.80;;;;;;4919252;29;20560;-80
2023/04/05 03:50:25;;;;;;;9.93;5.03;;;11.60;72.70;;;;;;4919117;29;20054;-80
2023/04/05 03:52:51;;;;;;;7.90;5.03;;;11.60;72.80;;;;;;4917989;29;20055;-80
2023/04/05 03:55:17;;;;;;;7.95;5.07;;;11.60;72.70;;;;;;4918797;29;20035;-81
2023/04/05 03:57:43;;;;;;;8.05;5.25;;;11.60;72.70;;;;;;4935907;29;20028;-80
2023/04/05 04:00:16;;;;;;;7.95;4.97;;;11.60;72.60;;;;;;4918575;29;20036;-82
2023/04/05 04:02:43;;;;;;;8.85;5.50;;;11.60;72.70;;;;;;4922112;29;20226;-80
2023/04/05 04:05:10;;;;;;;8.18;5.18;;;11.60;72.60;;;;;;4918010;29;20484;-78
2023/04/05 04:07:36;;;;;;;7.85;5.13;;;11.60;72.50;;;;;;4935643;29;20075;-79
2023/04/05 04:10:03;;;;;;;8.20;5.20;;;11.60;72.40;;;;;;4917256;29;20087;-79
2023/04/05 04:12:28;;;;;;;7.65;5.15;;;11.60;72.30;;;;;;4917664;29;20028;-77
2023/04/05 04:14:54;;;;;;;7.95;5.35;;;11.60;72.30;;;;;;4909448;29;20171;-77
2023/04/05 04:17:30;;;;;;;8.02;5.05;;;11.60;72.30;;;;;;4899485;29;20071;-81
2023/04/05 04:19:56;;;;;;;7.72;4.88;;;11.60;72.40;;;;;;4900202;29;20040;-80
2023/04/05 04:22:22;;;;;;;8.55;5.18;;;11.60;72.40;;;;;;4915354;29;20033;-79
2023/04/05 04:24:49;;;;;;;8.63;5.38;;;11.60;72.40;;;;;;4899649;29;20024;-80
2023/04/05 04:27:18;;;;;;;8.63;5.35;;;11.60;72.30;;;;;;4916909;29;20023;-79
2023/04/05 04:29:45;;;;;;;7.45;4.90;;;11.60;72.30;;;;;;4918258;29;20020;-81
2023/04/05 04:32:15;;;;;;;8.15;5.20;;;11.60;72.20;;;;;;4918294;29;20027;-79
2023/04/05 04:34:43;;;;;;;8.43;5.10;;;11.60;72.30;;;;;;4918317;29;20028;-80
2023/04/05 04:37:21;;;;;;;9.27;5.53;;;11.60;72.20;;;;;;4918555;29;20147;-80
2023/04/05 04:39:47;;;;;;;8.52;5.18;;;11.60;72.10;;;;;;4917319;29;20023;-79
2023/04/05 04:42:18;;;;;;;8.90;5.03;;;11.60;72.20;;;;;;4917222;29;20127;-80
2023/04/05 04:44:44;;;;;;;10.48;5.47;;;11.60;72.20;;;;;;4918066;29;20028;-80
2023/04/05 04:47:12;;;;;;;8.10;5.07;;;11.60;72.20;;;;;;4918024;29;20394;-79
2023/04/05 04:49:40;;;;;;;8.45;5.50;;;11.60;72.30;;;;;;4921484;29;20537;-82
2023/04/05 04:52:06;;;;;;;8.30;5.10;;;11.60;72.30;;;;;;4948753;28;20062;-81
2023/04/05 04:54:35;;;;;;;8.73;5.05;;;11.60;72.30;;;;;;4936310;29;20028;-82
2023/04/05 04:57:01;;;;;;;9.27;5.20;;;11.60;72.30;;;;;;4936353;29;20050;-82
2023/04/05 04:59:28;;;;;;;8.88;5.75;;;11.60;72.40;;;;;;4919451;29;20079;-82
2023/04/05 05:01:53;;;;;;;9.43;5.70;;;11.60;72.20;;;;;;4918888;29;20063;-80
2023/04/05 05:04:19;;;;;;;7.57;5.38;;;11.60;72.20;;;;;;4934979;29;20078;-80
2023/04/05 05:06:44;;;;;;;8.95;5.28;;;11.50;72.20;;;;;;4917504;29;20441;-80
2023/04/05 05:09:10;;;;;;;10.20;5.68;;;11.60;72.20;;;;;;4918540;29;20187;-82
2023/04/05 05:11:35;;;;;;;9.25;5.50;;;11.60;72.30;;;;;;4918235;29;20034;-81
2023/04/05 05:14:01;;;;;;;10.07;5.80;;;11.60;72.30;;;;;;4935959;29;20046;-80
2023/04/05 05:16:27;;;;;;;11.57;6.22;;;11.60;71.30;;;;;;4935918;29;20405;-82
2023/04/05 05:18:53;;;;;;;11.13;6.07;;;11.60;71.00;;;;;;4919950;29;20031;-81
2023/04/05 05:21:19;;;;;;;9.88;6.45;;;11.50;70.20;;;;;;4920545;29;20608;-82
2023/04/05 05:23:45;;;;;;;9.95;5.72;;;11.50;69.90;;;;;;4940220;29;20095;-82
2023/04/05 05:26:12;;;;;;;11.20;6.03;;;11.50;70.30;;;;;;4920223;29;20091;-80
2023/04/05 05:28:38;;;;;;;10.45;5.97;;;11.50;70.50;;;;;;4938503;29;20016;-81
2023/04/05 05:31:04;;;;;;;9.73;5.93;;;11.60;70.80;;;;;;4919627;29;20024;-81
2023/04/05 05:33:29;;;;;;;11.23;5.95;;;11.60;70.80;;;;;;4934819;29;20083;-81
2023/04/05 05:35:54;;;;;;;12.52;6.35;;;11.60;70.90;;;;;;4917450;29;20378;-80
2023/04/05 05:38:21;;;;;;;10.57;5.80;;;11.60;71.10;;;;;;4934188;29;20074;-81
2023/04/05 05:40:46;;;;;;;12.27;5.88;;;11.60;71.20;;;;;;4934269;29;20090;-81
2023/04/05 05:43:12;;;;;;;11.85;5.95;;;11.60;71.40;;;;;;4937084;29;20032;-82
2023/04/05 05:45:37;;;;;;;10.88;5.93;;;11.60;71.40;;;;;;4919876;29;20095;-82
2023/04/05 05:48:03;;;;;;;10.38;5.60;;;11.60;71.50;;;;;;4919855;29;20500;-82
2023/04/05 05:50:31;;;;;;;10.60;6.07;;;11.60;71.70;;;;;;4920576;29;20031;-82
2023/04/05 05:53:00;;;;;;;10.80;5.80;;;11.60;71.70;;;;;;4920667;29;20515;-81
2023/04/05 05:55:25;;;;;;;10.32;5.40;;;11.60;71.80;;;;;;4936906;29;20035;-81
2023/04/05 05:57:51;;;;;;;9.73;6.05;;;11.60;71.60;;;;;;4920556;29;20027;-82
2023/04/05 06:00:18;;;;;;;8.73;5.43;;;11.70;71.90;;;;;;4935066;29;20024;-81
2023/04/05 06:02:44;;;;;;;10.73;5.38;;;11.70;71.70;;;;;;4936750;29;20106;-80
2023/04/05 06:05:10;;;;;;;12.07;5.90;;;11.70;71.80;;;;;;4920578;29;20050;-81
2023/04/05 06:07:36;;;;;;;10.52;6.07;;;11.70;71.80;;;;;;4920058;29;20114;-80
2023/04/05 06:10:03;;;;;;;10.30;5.20;;;11.70;71.80;;;;;;4937271;29;20042;-80
2023/04/05 06:12:29;;;;;;;9.50;5.65;;;11.70;71.80;;;;;;4920154;29;20035;-81
2023/04/05 06:14:54;;;;;;;9.68;5.57;;;11.80;71.70;;;;;;4935618;29;20089;-80
2023/04/05 06:17:20;;;;;;;10.02;5.47;;;11.80;71.70;;;;;;4920029;29;20094;-80
2023/04/05 06:19:45;;;;;;;8.35;5.28;;;11.80;71.80;;;;;;4936701;29;20032;-80
2023/04/05 06:22:11;;;;;;;8.88;5.07;;;11.80;71.80;;;;;;4936752;29;20117;-81
2023/04/05 06:24:36;;;;;;;9.15;5.47;;;11.80;71.80;;;;;;4934807;29;20034;-81
2023/04/05 06:27:02;;;;;;;9.95;5.80;;;11.90;71.80;;;;;;4933756;29;20027;-80
2023/04/05 06:29:27;;;;;;;8.77;5.20;;;11.90;71.70;;;;;;4935107;29;20020;-80
2023/04/05 06:31:54;;;;;;;9.13;5.22;;;11.90;71.70;;;;;;4919444;29;20038;-82
2023/04/05 06:34:20;;;;;;;9.57;5.47;;;11.90;71.70;;;;;;4934965;29;20545;-80
2023/04/05 06:36:46;;;;;;;9.93;5.35;;;12.00;71.60;;;;;;4936111;29;20031;-81
2023/04/05 06:39:12;;;;;;;9.50;5.13;;;12.00;71.50;;;;;;4919060;29;20039;-82
2023/04/05 06:41:37;;;;;;;8.90;5.30;;;12.00;71.60;;;;;;4918766;29;20110;-83
2023/04/05 06:44:03;;;;;;;7.63;4.82;;;12.00;71.50;;;;;;4934662;29;20083;-81
2023/04/05 06:46:28;;;;;;;9.88;5.25;;;12.00;71.50;;;;;;4934598;29;20016;-79
2023/04/05 06:48:54;;;;;;;8.32;4.88;;;12.10;71.50;;;;;;4934354;29;20481;-81
2023/04/05 06:51:19;;;;;;;9.30;5.53;;;12.10;71.50;;;;;;4918587;29;20036;-80
2023/04/05 06:53:45;;;;;;;9.75;5.35;;;12.10;71.40;;;;;;4935711;29;20039;-81
2023/04/05 06:56:11;;;;;;;8.52;5.00;;;12.20;71.50;;;;;;4935829;29;20045;-81
2023/04/05 06:58:37;;;;;;;8.40;4.82;;;12.10;71.40;;;;;;4918440;29;20035;-81
2023/04/05 07:01:03;;;;;;;8.68;5.10;;;12.20;71.40;;;;;;4921374;29;20489;-81
2023/04/05 07:03:29;;;;;;;8.73;5.18;;;12.20;71.40;;;;;;4922529;29;20035;-82
2023/04/05 07:06:01;;;;;;;8.45;4.93;;;12.30;71.40;;;;;;4921549;29;20044;-81
2023/04/05 07:08:28;;;;;;;7.75;4.75;;;12.30;71.40;;;;;;4921618;29;20529;-80
2023/04/05 07:10:54;;;;;;;8.90;4.85;;;12.30;71.40;;;;;;4921159;29;20127;-81
2023/04/05 07:13:21;;;;;;;7.88;4.70;;;12.30;71.30;;;;;;4921324;29;20127;-80
2023/04/05 07:15:46;;;;;;;7.75;5.03;;;12.40;71.30;;;;;;4938741;29;20095;-80
2023/04/05 07:18:14;;;;;;;7.55;4.72;;;12.40;71.40;;;;;;4937631;29;20484;-80
2023/04/05 07:20:40;;;;;;;6.88;4.35;;;12.40;71.40;;;;;;4920772;29;20031;-82
2023/04/05 07:23:06;;;;;;;7.20;4.55;;;12.40;71.90;;;;;;4921589;29;20027;-80
2023/04/05 07:25:32;;;;;;;7.90;4.43;;;12.50;71.70;;;;;;4938897;29;20035;-80
2023/04/05 07:27:57;;;;;;;7.10;4.40;;;12.50;71.70;;;;;;4921396;29;20024;-79
2023/04/05 07:30:24;;;;;;;7.80;4.75;;;12.50;71.80;;;;;;4920849;29;20389;-80
2023/04/05 07:32:49;;;;;;;8.30;4.90;;;12.50;71.80;;;;;;4938520;29;20106;-80
2023/04/05 07:35:16;;;;;;;7.43;4.60;;;12.50;71.90;;;;;;4937081;29;20114;-81
2023/04/05 07:37:41;;;;;;;7.68;4.68;;;12.60;72.00;;;;;;4921163;29;20034;-80
2023/04/05 07:40:07;;;;;;;8.40;4.90;;;12.60;72.00;;;;;;4920628;29;20032;-80
2023/04/05 07:42:32;;;;;;;8.52;4.95;;;12.60;71.90;;;;;;4920623;29;20074;-80
2023/04/05 07:44:58;;;;;;;7.70;4.90;;;12.60;71.80;;;;;;4936580;29;20122;-80
2023/04/05 07:47:23;;;;;;;8.52;5.00;;;12.70;71.80;;;;;;4921028;29;20071;-81
2023/04/05 07:49:49;;;;;;;8.30;4.82;;;12.70;71.70;;;;;;4947952;23;20369;-85
2023/04/05 07:52:15;;;;;;;8.93;5.13;;;12.70;71.60;;;;;;4939261;29;20031;-86
2023/04/05 07:54:42;;;;;;;8.50;4.68;;;12.80;71.40;;;;;;4956935;29;20033;-87
2023/04/05 07:57:08;;;;;;;8.55;5.10;;;12.80;71.50;;;;;;4939961;29;20034;-86
2023/04/05 07:59:33;;;;;;;7.40;4.35;;;12.80;71.20;;;;;;4939044;29;20027;-87
2023/04/05 08:01:59;;;;;;;7.80;5.00;;;12.80;71.40;;;;;;4939186;29;20042;-87
2023/04/05 08:04:25;;;;;;;7.55;4.60;;;12.80;71.60;;;;;;4956865;29;20028;-87
2023/04/05 08:06:50;;;;;;;8.15;4.43;;;12.90;71.40;;;;;;4939365;29;20523;-87
2023/04/05 08:09:16;;;;;;;7.75;4.65;;;12.90;71.40;;;;;;4956624;29;20008;-86
2023/04/05 08:11:42;;;;;;;7.82;4.70;;;12.90;71.20;;;;;;4938725;29;20392;-87
2023/04/05 08:14:07;;;;;;;7.25;4.43;;;12.90;71.90;;;;;;4939278;29;20065;-86
2023/04/05 08:16:33;;;;;;;7.43;4.55;;;12.90;71.70;;;;;;4939257;29;20424;-87
2023/04/05 08:18:59;;;;;;;7.40;4.40;;;13.00;71.90;;;;;;4939175;29;20035;-87
2023/04/05 08:21:25;;;;;;;8.50;4.97;;;13.00;71.40;;;;;;4938824;29;20502;-85
2023/04/05 08:23:51;;;;;;;7.05;4.50;;;12.90;71.40;;;;;;4956684;29;20087;-87
2023/04/05 08:26:16;;;;;;;7.72;4.07;;;13.00;71.40;;;;;;4939212;29;20020;-86
2023/04/05 08:28:42;;;;;;;7.03;4.22;;;13.00;71.30;;;;;;4938973;29;20493;-86
2023/04/05 08:31:07;;;;;;;7.05;4.40;;;13.00;71.10;;;;;;4938686;29;20027;-86
2023/04/05 08:33:33;;;;;;;7.88;4.57;;;13.10;71.00;;;;;;4938795;29;20031;-86
2023/04/05 08:36:06;;;;;;;7.53;4.60;;;13.10;70.70;;;;;;4955988;29;20385;-86
2023/04/05 08:38:31;;;;;;;7.53;4.60;;;13.10;70.90;;;;;;4938937;29;20031;-86
2023/04/05 08:41:26;;;;;;;7.78;4.57;;;13.20;70.80;;;;;;4938656;29;20042;-86
2023/04/05 08:43:58;;;;;;;7.63;4.63;;;13.20;70.90;;;;;;4955299;29;20163;-85
2023/04/05 08:46:25;;;;;;;7.18;4.28;;;13.20;71.10;;;;;;4938787;29;20035;-85
2023/04/05 08:48:50;;;;;;;7.22;4.50;;;13.20;71.00;;;;;;4938594;29;20041;-86
2023/04/05 08:51:23;;;;;;;7.18;4.35;;;13.20;71.20;;;;;;4938084;29;20492;-86
2023/04/05 08:53:49;;;;;;;7.80;4.15;;;13.30;70.90;;;;;;4938586;29;20034;-86
2023/04/05 08:56:18;;;;;;;6.93;4.20;;;13.30;70.80;;;;;;4938499;29;20023;-86
2023/04/05 08:58:51;;;;;;;7.00;4.30;;;13.30;70.70;;;;;;4937799;29;20032;-83
2023/04/05 09:01:17;;;;;;;7.45;4.30;;;13.30;71.00;;;;;;4938193;29;20031;-84
2023/04/05 09:03:44;;;;;;;6.47;3.95;;;13.30;70.90;;;;;;4938372;29;20126;-85
2023/04/05 09:06:11;;;;;;;7.53;4.00;;;13.30;70.70;;;;;;4938297;29;20023;-86
2023/04/05 09:08:37;;;;;;;6.85;4.18;;;13.40;70.60;;;;;;4938457;29;20061;-86
2023/04/05 09:11:04;;;;;;;7.32;4.10;;;13.40;70.90;;;;;;4938158;29;20035;-86
2023/04/05 09:13:30;;;;;;;6.40;4.05;;;13.40;71.10;;;;;;4938330;29;20034;-87
2023/04/05 09:15:56;;;;;;;6.72;3.97;;;13.40;71.10;;;;;;4938272;29;20066;-86
2023/04/05 09:18:22;;;;;;;6.15;3.97;;;13.40;71.00;;;;;;4938121;29;20460;-86
2023/04/05 09:20:47;;;;;;;7.05;4.03;;;13.40;70.90;;;;;;4937933;29;20067;-86
2023/04/05 09:23:13;;;;;;;6.63;4.20;;;13.40;71.30;;;;;;4937727;29;20492;-87
2023/04/05 09:25:41;;;;;;;6.53;3.85;;;13.40;71.20;;;;;;4938389;29;20035;-86
2023/04/05 09:28:08;;;;;;;6.68;4.13;;;13.40;71.20;;;;;;4937854;29;20029;-86
2023/04/05 09:30:36;;;;;;;6.35;4.07;;;13.40;70.90;;;;;;4937874;29;20114;-86
2023/04/05 09:33:02;;;;;;;7.38;3.80;;;13.40;71.00;;;;;;4937826;29;20027;-85
2023/04/05 09:35:30;;;;;;;5.88;3.65;;;13.50;70.80;;;;;;4955050;29;20030;-86
2023/04/05 09:38:02;;;;;;;6.97;4.15;;;13.50;70.60;;;;;;4937696;29;20038;-86
2023/04/05 09:40:45;;;;;;;7.03;3.97;;;13.60;70.60;;;;;;4937465;29;20026;-86
2023/04/05 09:43:11;;;;;;;7.78;4.18;;;13.50;70.90;;;;;;4955000;29;20040;-86
2023/04/05 09:45:40;;;;;;;6.10;3.90;;;13.50;70.80;;;;;;4937524;29;20110;-87
2023/04/05 09:48:06;;;;;;;6.97;4.20;;;13.50;70.60;;;;;;4954958;29;20016;-87
2023/04/05 09:50:31;;;;;;;6.65;3.88;;;13.50;70.70;;;;;;4937329;29;20046;-86
2023/04/05 09:53:15;;;;;;;6.38;3.72;;;13.50;70.70;;;;;;4937620;29;20126;-85
2023/04/05 09:55:41;;;;;;;5.93;3.42;;;13.50;70.70;;;;;;4937499;29;20090;-86
2023/04/05 09:58:12;;;;;;;7.25;3.90;;;13.50;71.10;;;;;;4937534;29;20031;-86
2023/04/05 10:00:38;;;;;;;6.07;3.70;;;13.50;70.80;;;;;;4937039;29;20126;-85
2023/04/05 10:03:04;;;;;;;6.10;3.45;;;13.50;70.90;;;;;;4937685;29;20106;-87
2023/04/05 10:05:31;;;;;;;6.78;3.65;;;13.50;71.40;;;;;;4937523;29;20114;-85
2023/04/05 10:07:57;;;;;;;6.65;3.97;;;13.50;71.00;;;;;;4937506;29;20023;-85
2023/04/05 10:10:24;;;;;;;5.78;3.33;;;13.50;71.10;;;;;;4937202;29;20050;-84
2023/04/05 10:12:50;;;;;;;6.18;3.80;;;13.60;71.30;;;;;;4954531;29;20034;-86
2023/04/05 10:15:17;;;;;;;5.82;3.30;;;13.50;71.30;;;;;;4937178;29;20031;-86
2023/04/05 10:17:48;;;;;;;5.75;3.40;;;13.60;71.30;;;;;;4937544;29;20082;-85
2023/04/05 10:20:20;;;;;;;6.15;3.55;;;13.60;71.60;;;;;;4937010;29;20035;-86
2023/04/05 10:22:55;;;;;;;7.07;3.70;;;13.60;71.30;;;;;;4936849;29;20054;-85
2023/04/05 10:25:49;;;;;;;5.90;3.47;;;13.60;71.50;;;;;;4937160;29;20027;-86
2023/04/05 10:28:35;;;;;;;7.43;3.70;;;13.60;71.40;;;;;;4937116;29;20514;-85
2023/04/05 10:31:22;;;;;;;6.85;3.65;;;13.60;71.40;;;;;;4936864;29;20032;-85
2023/04/05 10:33:57;;;;;;;5.88;3.30;;;13.60;71.50;;;;;;4937040;29;20551;-85
2023/04/05 10:36:37;;;;;;;6.20;3.60;;;13.60;72.10;;;;;;4954188;29;20090;-85
2023/04/05 10:39:07;;;;;;;6.00;3.53;;;13.60;71.80;;;;;;4937069;29;20516;-86
2023/04/05 10:41:42;;;;;;;5.93;3.40;;;13.60;71.20;;;;;;4936765;29;20023;-85
2023/04/05 10:44:10;;;;;;;5.88;3.50;;;13.60;71.20;;;;;;4954616;29;20102;-88
2023/04/05 10:46:38;;;;;;;6.00;3.30;;;13.70;70.80;;;;;;4936897;29;20031;-86
2023/04/05 10:49:10;;;;;;;5.78;3.58;;;13.70;72.10;;;;;;4936787;29;20027;-86
2023/04/05 10:51:37;;;;;;;5.25;3.00;;;13.60;72.40;;;;;;4936527;29;20035;-86
2023/04/05 10:54:04;;;;;;;5.63;3.35;;;13.60;72.00;;;;;;4936848;29;20457;-85
2023/04/05 10:56:30;;;;;;;5.63;3.22;;;13.60;71.90;;;;;;4936573;29;20031;-86
2023/04/05 10:58:59;;;;;;;5.53;3.00;;;13.60;71.90;;;;;;4936527;29;20042;-86
2023/04/05 11:01:24;;;;;;;5.72;3.00;;;13.60;71.50;;;;;;4936620;29;20027;-85
2023/04/05 11:03:53;;;;;;;6.03;3.25;;;13.60;72.00;;;;;;4936511;29;20019;-86
2023/04/05 11:06:37;;;;;;;5.38;3.20;;;13.60;72.00;;;;;;4936809;29;20535;-86
2023/04/05 11:09:15;;;;;;;5.28;3.17;;;13.70;72.00;;;;;;4936602;29;20031;-86
2023/04/05 11:11:42;;;;;;;5.95;3.05;;;13.70;71.80;;;;;;4936407;29;20027;-86
2023/04/05 11:14:17;;;;;;;5.28;2.88;;;13.70;71.90;;;;;;4936548;29;20559;-87
2023/04/05 11:16:46;;;;;;;5.25;3.10;;;13.70;72.10;;;;;;4936637;29;20032;-86
2023/04/05 11:19:11;;;;;;;5.88;3.20;;;13.70;72.30;;;;;;4936713;29;20504;-86
2023/04/05 11:21:37;;;;;;;4.82;2.65;;;13.70;71.90;;;;;;4936338;29;20170;-85
2023/04/05 11:24:11;;;;;;;5.90;3.15;;;13.70;71.70;;;;;;4936793;29;20054;-86
2023/04/05 11:26:40;;;;;;;5.72;3.40;;;13.60;71.50;;;;;;4936519;29;20027;-85
2023/04/05 11:29:10;;;;;;;5.20;3.00;;;13.70;71.60;;;;;;4953747;29;20027;-86
2023/04/05 11:31:35;;;;;;;5.28;2.85;;;13.60;71.60;;;;;;4936263;29;20163;-85
2023/04/05 11:34:11;;;;;;;5.35;2.90;;;13.70;71.10;;;;;;4936304;29;20146;-86
2023/04/05 11:36:40;;;;;;;5.72;2.78;;;13.60;70.90;;;;;;4953717;29;20392;-86
2023/04/05 11:39:21;;;;;;;5.50;2.90;;;13.60;71.00;;;;;;4936657;29;20028;-86
2023/04/05 11:42:01;;;;;;;5.28;2.90;;;13.70;71.60;;;;;;4936211;29;20492;-86
2023/04/05 11:44:39;;;;;;;4.80;2.70;;;13.70;71.50;;;;;;4936922;28;20082;-87
2023/04/05 11:47:06;;;;;;;4.70;2.60;;;13.70;71.00;;;;;;4939893;29;20071;-85
2023/04/05 11:49:32;;;;;;;5.25;2.75;;;13.70;71.90;;;;;;4940094;29;20034;-86
2023/04/05 11:52:08;;;;;;;4.65;2.70;;;13.70;71.90;;;;;;4939868;29;20126;-87
2023/04/05 11:54:34;;;;;;;4.82;2.80;;;13.70;71.70;;;;;;4940279;29;20081;-85
2023/04/05 11:57:00;;;;;;;5.32;2.70;;;13.70;71.20;;;;;;4939708;29;20544;-86
2023/04/05 11:59:33;;;;;;;5.00;2.60;;;13.70;71.70;;;;;;4940745;29;20119;-85
2023/04/05 12:02:06;;;;;;;4.55;2.58;;;13.70;71.70;;;;;;4939136;29;20039;-85
2023/04/05 12:04:31;;;;;;;5.45;2.83;;;13.70;72.20;;;;;;4956949;29;20019;-86
2023/04/05 12:07:35;;;;;;;5.47;3.10;;;13.70;71.10;;;;;;4939544;29;20452;-87
2023/04/05 12:10:07;;;;;;;4.60;2.70;;;13.70;71.80;;;;;;4930531;29;20892;-85
2023/04/05 12:12:34;;;;;;;;;;;13.70;71.70;;;;;;4939857;29;20031;-86
2023/04/05 12:15:01;;;;;;;5.53;2.80;;;13.70;71.60;;;;;;4956629;29;19910;-86
2023/04/05 12:17:48;;;;;;;4.88;2.90;;;13.70;71.70;;;;;;4956603;29;20053;-86
2023/04/05 12:20:18;;;;;;;4.70;2.53;;;13.70;71.60;;;;;;4931867;29;20031;-85
2023/04/05 12:22:44;;;;;;;4.35;2.65;;;13.70;71.20;;;;;;4939951;29;20027;-87
2023/04/05 12:25:10;;;;;;;4.82;2.63;;;13.70;71.40;;;;;;4939397;29;20029;-87
2023/04/05 12:27:37;;;;;;;5.47;2.70;;;13.80;72.20;;;;;;4939326;29;20027;-86
2023/04/05 12:30:15;;;;;;;5.15;2.92;;;13.70;71.60;;;;;;4939269;29;20101;-87
2023/04/05 12:32:50;;;;;;;4.53;2.55;;;13.70;71.50;;;;;;4939050;29;20038;-86
2023/04/05 12:35:21;;;;;;;4.32;2.47;;;13.60;71.40;;;;;;4939000;29;20027;-85
2023/04/05 12:37:49;;;;;;;5.45;2.95;;;13.70;71.30;;;;;;4938950;29;20078;-86
2023/04/05 12:40:19;;;;;;;5.45;2.90;;;13.60;71.50;;;;;;4938671;29;20062;-86
2023/04/05 12:42:45;;;;;;;4.85;2.83;;;13.60;71.60;;;;;;4956128;29;20031;-87
2023/04/05 12:45:12;;;;;;;4.88;2.70;;;13.60;71.50;;;;;;4939022;29;20027;-85
2023/04/05 12:47:59;;;;;;;5.10;2.72;;;13.60;71.40;;;;;;4938701;29;20034;-86
2023/04/05 12:50:29;;;;;;;4.57;2.55;;;13.60;71.20;;;;;;4938308;29;20407;-85